sensor_id;sensor_type;location;lat;lon;timestamp;P1;durP1;ratioP1;P2;durP2;ratioP2
59314;SDS011;46521;50.160;20.802;2022-07-15T00:02:10;5.67;;;2.70;;
59314;SDS011;46521;50.160;20.802;2022-07-15T00:12:11;7.27;;;2.87;;
59314;SDS011;46521;50.160;20.802;2022-07-15T00:22:13;7.40;;;3.20;;
59314;SDS011;46521;50.160;20.802;2022-07-15T00:32:14;7.20;;;3.20;;
59314;SDS011;46521;50.160;20.802;2022-07-15T00:42:16;7.55;;;3.70;;
59314;SDS011;46521;50.160;20.802;2022-07-15T00:52:37;6.80;;;3.33;;
59314;SDS011;46521;50.160;20.802;2022-07-15T01:12:48;7.60;;;3.70;;
59314;SDS011;46521;50.160;20.802;2022-07-15T01:22:51;7.18;;;4.08;;
59314;SDS011;46521;50.160;20.802;2022-07-15T01:32:53;6.90;;;3.70;;
59314;SDS011;46521;50.160;20.802;2022-07-15T01:42:54;7.47;;;4.17;;
59314;SDS011;46521;50.160;20.802;2022-07-15T01:52:56;6.60;;;3.70;;
59314;SDS011;46521;50.160;20.802;2022-07-15T02:23:37;8.03;;;4.10;;
59314;SDS011;46521;50.160;20.802;2022-07-15T02:33:39;6.03;;;3.70;;
59314;SDS011;46521;50.160;20.802;2022-07-15T02:43:43;8.80;;;4.00;;
59314;SDS011;46521;50.160;20.802;2022-07-15T02:53:45;7.45;;;3.95;;
59314;SDS011;46521;50.160;20.802;2022-07-15T03:03:47;7.00;;;3.80;;
59314;SDS011;46521;50.160;20.802;2022-07-15T03:13:48;7.35;;;3.60;;
59314;SDS011;46521;50.160;20.802;2022-07-15T03:23:49;8.70;;;4.40;;
59314;SDS011;46521;50.160;20.802;2022-07-15T03:33:51;6.98;;;3.75;;
59314;SDS011;46521;50.160;20.802;2022-07-15T03:43:52;8.43;;;4.17;;
59314;SDS011;46521;50.160;20.802;2022-07-15T03:53:53;7.80;;;4.20;;
59314;SDS011;46521;50.160;20.802;2022-07-15T04:03:55;8.90;;;4.30;;
59314;SDS011;46521;50.160;20.802;2022-07-15T04:13:57;7.30;;;4.20;;
59314;SDS011;46521;50.160;20.802;2022-07-15T04:23:59;8.00;;;5.20;;
59314;SDS011;46521;50.160;20.802;2022-07-15T04:34:01;11.23;;;7.03;;
59314;SDS011;46521;50.160;20.802;2022-07-15T04:44:02;11.27;;;8.03;;
59314;SDS011;46521;50.160;20.802;2022-07-15T04:54:04;13.83;;;10.10;;
59314;SDS011;46521;50.160;20.802;2022-07-15T05:04:05;12.90;;;10.33;;
59314;SDS011;46521;50.160;20.802;2022-07-15T05:14:07;13.87;;;10.73;;
59314;SDS011;46521;50.160;20.802;2022-07-15T05:24:08;12.73;;;9.53;;
59314;SDS011;46521;50.160;20.802;2022-07-15T05:34:10;12.55;;;9.35;;
59314;SDS011;46521;50.160;20.802;2022-07-15T05:44:11;11.23;;;6.70;;
59314;SDS011;46521;50.160;20.802;2022-07-15T05:54:12;8.57;;;5.13;;
59314;SDS011;46521;50.160;20.802;2022-07-15T06:04:15;10.23;;;4.70;;
59314;SDS011;46521;50.160;20.802;2022-07-15T06:14:17;19.50;;;7.80;;
59314;SDS011;46521;50.160;20.802;2022-07-15T06:24:18;9.45;;;3.50;;
59314;SDS011;46521;50.160;20.802;2022-07-15T06:34:20;7.90;;;2.00;;
59314;SDS011;46521;50.160;20.802;2022-07-15T06:44:21;6.20;;;2.03;;
59314;SDS011;46521;50.160;20.802;2022-07-15T06:54:23;4.93;;;1.85;;
59314;SDS011;46521;50.160;20.802;2022-07-15T07:04:24;5.30;;;1.40;;
59314;SDS011;46521;50.160;20.802;2022-07-15T07:14:26;4.10;;;1.30;;
59314;SDS011;46521;50.160;20.802;2022-07-15T07:24:27;4.55;;;1.20;;
59314;SDS011;46521;50.160;20.802;2022-07-15T07:34:29;5.05;;;1.40;;
59314;SDS011;46521;50.160;20.802;2022-07-15T07:44:31;3.90;;;1.25;;
59314;SDS011;46521;50.160;20.802;2022-07-15T07:54:33;4.57;;;1.20;;
59314;SDS011;46521;50.160;20.802;2022-07-15T08:04:36;2.95;;;1.10;;
59314;SDS011;46521;50.160;20.802;2022-07-15T08:14:38;2.55;;;1.10;;
59314;SDS011;46521;50.160;20.802;2022-07-15T08:24:40;6.15;;;1.10;;
59314;SDS011;46521;50.160;20.802;2022-07-15T08:34:42;3.30;;;1.00;;
59314;SDS011;46521;50.160;20.802;2022-07-15T08:44:43;0.97;;;0.80;;
59314;SDS011;46521;50.160;20.802;2022-07-15T08:54:45;3.70;;;1.00;;
59314;SDS011;46521;50.160;20.802;2022-07-15T09:15:32;4.67;;;1.20;;
59314;SDS011;46521;50.160;20.802;2022-07-15T09:25:41;3.80;;;1.13;;
59314;SDS011;46521;50.160;20.802;2022-07-15T09:35:44;2.73;;;1.00;;
59314;SDS011;46521;50.160;20.802;2022-07-15T09:46:04;5.95;;;1.50;;
59314;SDS011;46521;50.160;20.802;2022-07-15T09:56:09;5.00;;;1.60;;
59314;SDS011;46521;50.160;20.802;2022-07-15T10:06:15;4.97;;;1.43;;
59314;SDS011;46521;50.160;20.802;2022-07-15T10:16:26;6.33;;;1.50;;
59314;SDS011;46521;50.160;20.802;2022-07-15T10:36:53;5.40;;;1.53;;
59314;SDS011;46521;50.160;20.802;2022-07-15T10:57:14;3.93;;;1.58;;
59314;SDS011;46521;50.160;20.802;2022-07-15T11:07:20;5.57;;;1.90;;
59314;SDS011;46521;50.160;20.802;2022-07-15T11:27:29;5.13;;;1.63;;
59314;SDS011;46521;50.160;20.802;2022-07-15T11:37:33;4.45;;;1.80;;
59314;SDS011;46521;50.160;20.802;2022-07-15T11:47:35;3.93;;;1.40;;
59314;SDS011;46521;50.160;20.802;2022-07-15T11:57:52;5.63;;;1.50;;
59314;SDS011;46521;50.160;20.802;2022-07-15T12:07:55;5.40;;;1.43;;
59314;SDS011;46521;50.160;20.802;2022-07-15T12:17:58;7.25;;;1.50;;
59314;SDS011;46521;50.160;20.802;2022-07-15T12:28:00;4.10;;;1.40;;
59314;SDS011;46521;50.160;20.802;2022-07-15T12:38:01;4.15;;;1.60;;
59314;SDS011;46521;50.160;20.802;2022-07-15T12:48:04;4.45;;;1.60;;
59314;SDS011;46521;50.160;20.802;2022-07-15T12:58:09;3.37;;;1.10;;
59314;SDS011;46521;50.160;20.802;2022-07-15T13:08:16;3.00;;;1.30;;
59314;SDS011;46521;50.160;20.802;2022-07-15T13:18:19;2.93;;;1.30;;
59314;SDS011;46521;50.160;20.802;2022-07-15T13:28:22;3.67;;;1.30;;
59314;SDS011;46521;50.160;20.802;2022-07-15T13:38:24;3.73;;;1.20;;
59314;SDS011;46521;50.160;20.802;2022-07-15T13:48:25;5.57;;;1.20;;
59314;SDS011;46521;50.160;20.802;2022-07-15T13:58:27;3.10;;;1.10;;
59314;SDS011;46521;50.160;20.802;2022-07-15T14:08:29;3.13;;;1.10;;
59314;SDS011;46521;50.160;20.802;2022-07-15T14:18:30;4.10;;;1.40;;
59314;SDS011;46521;50.160;20.802;2022-07-15T14:28:44;3.33;;;1.20;;
59314;SDS011;46521;50.160;20.802;2022-07-15T14:38:45;2.95;;;1.20;;
59314;SDS011;46521;50.160;20.802;2022-07-15T14:48:47;3.75;;;1.35;;
59314;SDS011;46521;50.160;20.802;2022-07-15T14:58:49;2.87;;;1.20;;
59314;SDS011;46521;50.160;20.802;2022-07-15T15:08:50;4.87;;;1.30;;
59314;SDS011;46521;50.160;20.802;2022-07-15T15:18:51;3.50;;;0.97;;
59314;SDS011;46521;50.160;20.802;2022-07-15T15:28:53;4.03;;;1.20;;
59314;SDS011;46521;50.160;20.802;2022-07-15T15:39:01;2.18;;;0.75;;
59314;SDS011;46521;50.160;20.802;2022-07-15T15:59:46;2.98;;;0.90;;
59314;SDS011;46521;50.160;20.802;2022-07-15T16:09:48;2.53;;;1.10;;
59314;SDS011;46521;50.160;20.802;2022-07-15T16:19:49;2.67;;;0.90;;
59314;SDS011;46521;50.160;20.802;2022-07-15T16:29:50;2.50;;;1.00;;
59314;SDS011;46521;50.160;20.802;2022-07-15T16:39:52;3.73;;;1.10;;
59314;SDS011;46521;50.160;20.802;2022-07-15T16:49:53;3.73;;;1.03;;
59314;SDS011;46521;50.160;20.802;2022-07-15T16:59:55;3.38;;;1.30;;
59314;SDS011;46521;50.160;20.802;2022-07-15T17:10:03;3.13;;;1.25;;
59314;SDS011;46521;50.160;20.802;2022-07-15T17:31:15;2.50;;;1.10;;
59314;SDS011;46521;50.160;20.802;2022-07-15T17:41:17;20.75;;;11.43;;
59314;SDS011;46521;50.160;20.802;2022-07-15T17:51:19;7.20;;;2.90;;
59314;SDS011;46521;50.160;20.802;2022-07-15T18:01:22;7.73;;;2.73;;
59314;SDS011;46521;50.160;20.802;2022-07-15T18:21:27;5.67;;;1.87;;
59314;SDS011;46521;50.160;20.802;2022-07-15T18:31:29;8.23;;;2.57;;
59314;SDS011;46521;50.160;20.802;2022-07-15T18:41:31;6.57;;;2.10;;
59314;SDS011;46521;50.160;20.802;2022-07-15T18:51:33;6.15;;;2.15;;
59314;SDS011;46521;50.160;20.802;2022-07-15T19:01:34;7.53;;;1.90;;
59314;SDS011;46521;50.160;20.802;2022-07-15T19:11:36;8.60;;;3.63;;
59314;SDS011;46521;50.160;20.802;2022-07-15T19:21:38;8.85;;;3.40;;
59314;SDS011;46521;50.160;20.802;2022-07-15T19:31:42;10.35;;;4.90;;
59314;SDS011;46521;50.160;20.802;2022-07-15T19:41:44;6.75;;;2.80;;
59314;SDS011;46521;50.160;20.802;2022-07-15T19:51:46;8.80;;;3.00;;
59314;SDS011;46521;50.160;20.802;2022-07-15T20:01:49;7.15;;;2.50;;
59314;SDS011;46521;50.160;20.802;2022-07-15T20:11:55;6.58;;;2.05;;
59314;SDS011;46521;50.160;20.802;2022-07-15T20:33:29;7.73;;;2.65;;
59314;SDS011;46521;50.160;20.802;2022-07-15T20:43:31;6.10;;;2.20;;
59314;SDS011;46521;50.160;20.802;2022-07-15T20:53:32;6.10;;;2.57;;
59314;SDS011;46521;50.160;20.802;2022-07-15T21:03:34;7.87;;;2.57;;
59314;SDS011;46521;50.160;20.802;2022-07-15T21:13:35;9.03;;;3.00;;
59314;SDS011;46521;50.160;20.802;2022-07-15T21:23:37;7.57;;;2.30;;
59314;SDS011;46521;50.160;20.802;2022-07-15T21:33:38;6.10;;;2.40;;
59314;SDS011;46521;50.160;20.802;2022-07-15T21:43:39;6.65;;;2.20;;
59314;SDS011;46521;50.160;20.802;2022-07-15T21:53:41;5.15;;;1.75;;
59314;SDS011;46521;50.160;20.802;2022-07-15T22:03:42;6.50;;;3.00;;
59314;SDS011;46521;50.160;20.802;2022-07-15T22:13:44;7.55;;;3.35;;
59314;SDS011;46521;50.160;20.802;2022-07-15T22:23:46;8.05;;;2.70;;
59314;SDS011;46521;50.160;20.802;2022-07-15T22:33:49;5.58;;;2.08;;
59314;SDS011;46521;50.160;20.802;2022-07-15T22:43:50;5.80;;;2.10;;
59314;SDS011;46521;50.160;20.802;2022-07-15T22:53:52;5.00;;;1.70;;
59314;SDS011;46521;50.160;20.802;2022-07-15T23:03:53;6.35;;;1.90;;
59314;SDS011;46521;50.160;20.802;2022-07-15T23:13:54;6.20;;;2.25;;
59314;SDS011;46521;50.160;20.802;2022-07-15T23:23:56;5.38;;;2.15;;
59314;SDS011;46521;50.160;20.802;2022-07-15T23:33:58;6.33;;;2.30;;
59314;SDS011;46521;50.160;20.802;2022-07-15T23:43:59;5.88;;;2.25;;
59314;SDS011;46521;50.160;20.802;2022-07-15T23:54:01;7.23;;;2.18;;
